ESPA/LLA METAR and TAF weather

Enter ICAO airport designator
Station Type Date Time Source
ESPA METAR 2018/07/21 13:20 UTC NOAA

ESPA 211320Z 14008KT CAVOK 25/17 Q1006


Station Type Date Time Source
ESPA Decoded METAR 2018/07/21 13:20 UTC NOAA

Lulea / Kallax, Sweden (ESPA) 65-33N 022-08E 34M
Jul 21, 2018 - 09:20 AM EDT / 2018.07.21 1320 UTC
Wind: from the SE (140 degrees) at 9 MPH (8 KT):0
Visibility: greater than 7 mile(s):0
Temperature: 77 F (25 C)
Dew Point: 62 F (17 C)
Relative Humidity: 61%
Pressure (altimeter): 29.71 in. Hg (1006 hPa)
ob: ESPA 211320Z 14008KT CAVOK 25/17 Q1006
cycle: 13

Station Type Date Time Source
ESPA TAF 2017/09/16 02:00 UTC NOAA

TAF ESPA 160200 160400/160412 35008KT 9999 BKN007 PROB40 1604/1609 BKN012
TEMPO 1609/1612 BKN015


Example: see airport list